John C. Munro Hamilton International Airport
CYHM : now visible

Airfield :











YOU CAN JOIN US ON...

 
LOGIN :

Register | Disclaimer

   EN    FR    IT 

 









Legend :    VFR   Marginal VFR   IFR   Intensive IFR   Very Intensive IFR
Visi :
Ceiling :
>= 8 km
>= 3000ft
5 to 8 km
1000 to 3000 ft
1500m to 5 km
500 to 1000 ft
800 to 1500m
200 to 500 ft
< 800m
< 200 ft
Symbols :   Thunderstorms  Fog  Heavy snow  Heavy precipitations  Wind > 20 kt






- Airport Elevation : 780 ft
- IATA code : YHM


CYHM - John C. Munro Hamilton International

CURRENT METAR :
  • 021700Z 26008G16KT 220V310 15SM FEW060 BKN250 26/09 A2996 RMK CU1CI5 CU TR SLP144 DENSITY ALT 2200FT

EXPIRED METARs :
  • 021600Z 28007G15KT 240V310 15SM FEW050 SCT250 24/11 A2996 RMK CU1CI3 CU TR SLP145 DENSITY ALT 2000FT
  • 021500Z 30004KT 240V340 15SM FEW250 24/08 A2996 RMK CI1 CI TR SLP145 DENSITY ALT 1900FT
  • 020300Z 23008KT 15SM OVC130 22/19 A2986 RMK AS8 SLP111 DENSITY ALT 1900FT

TAF TAF CYHM
Valid from the 02 at 12:00 until the 03 at 12:00 UTC


021140Z 0212/0312 31005KT P6SM FEW060
BECMG 0213/0215 27010KT
BECMG 0218/0220 27010G20KT
FM030000 26010KT P6SM SCT070
FM030600 33006KT P6SM SKC RMK NXT FCST BY 021800Z
CZYZ FIR / North America



MET'MAP, your aeronautical weather chart ! - Copyright ORBIFLY December 2007 - Disclaimer

ORBIFLY MET'MAP TEAM :

Programming & Development : Alexandra Zaïnal
Original concept : Baudouin d'Aumeries
Technical & hardware support : Manuel Goepfert
Assistance : Marc-Olivier Méhu




SOURCES & CREDITS :

   NOAA       Earth
Advisory